Share

Auburn, AL

KALAUBUR4 Elev 646 ft | 32.58 °N, 85.45 °W | Change Station

Current weather conditions updated 13 minutes ago

Clear
Clear
49.0 °F
Feels Like 49 °F
N
0.0
Wind Variable Wind from NE
Sunrise 6:05 AM
Sunset 7:16 PM
Moon Waning Gibbous

Today is forecast to be nearly the same temperature as yesterday.

Pressure 30.17 in
Visibility 10.0 miles
Clouds Clear
Windchill 49 °F
Dew Point 48 °F
Humidity 97%
Rainfall 0.00 in
Snow Depth Not available.
UV 0 out of 16
Pollen 8.80 out of 12
Air Quality Not available.
Flu Activity Sporadic
METAR KAUO 210855Z AUTO 09004KT 10SM CLR 12/06 A3017 RMK AO1 57003

More Conditions Fewer Conditions

Pressure 30.17 in
Visibility 10.0 miles
Clouds Clear
Windchill 49 °F
Dew Point 48 °F
Humidity 97%
Rainfall 0.00 in
Snow Depth Not available.
UV 0 out of 16
Pollen 8.80 out of 12
Air Quality Not available.
Flu Activity Sporadic
METAR KAUO 210855Z AUTO 09004KT 10SM CLR 12/06 A3017 RMK AO1 57003

More Conditions Fewer Conditions

10-Day Weather Forecast

Almanac

Astronomy

Apr. 21, 2014 Rise Set
Actual Time 6:05 AM CDT 7:16 PM CDT
Civil Twilight 5:40 AM CDT 7:41 PM CDT
Nautical Twilight 5:09 AM CDT 8:12 PM CDT
Astronomical Twilight 4:38 AM CDT 8:43 PM CDT
Moon 12:40 AM CDT 11:35 AM CDT
Length of Visible Light 14h 01m
Length of Day
13h 10m
Tomorrow will be 1m 50s longer.
Waning Gibbous, 61% of the Moon is Illuminated
Today
Waning Gibbous
Apr 22
Last Quarter
Apr 29
New
May 6
First Quarter
May 14
Full

Today's Extremes

State Highs State Lows

Community

  • Snowy Robin
    Snowy Robin
  • Sun Pillar and Geese
    Sun Pillar and Geese
  • Showers on the Way
    Showers on the Way
  • Easter Morning Fog
    Easter Morning Fog
  • Easter Dance
    Easter Dance

WunderPhotos

Upload Photos

1,703,579 photos uploaded!

WunderBlogs® & News

Nearby

Snow Depth

Station Depth Elevation
No new snow has been reported.

Coastal Water Temperatures

Place Temperature
No Stations Reporting

Earthquake Activity

City Distance Mag. Time & Date
No recent earthquake activity has been reported nearby.
Minimum magnitude displayed is 2.5.

Nearby Weather Stations

Station Location Temp. Windchill Dew Point Humidity Wind Precip. Elev Updated Type
Auburn, AL 49.0 °F 49 °F 48 °F 97% NE  at  0.0 mph - / hr 646 ft 4:03 AM CDT Normal
RAWS TUSKEGEE AL, Auburn, AL 50 °F - 49 °F 98% North  at  0 mph 0.00 in / hr 508 ft 3:26 AM CDT MADIS
Opelika, AL - Highland Ave., Opelika, AL 51.6 °F - 46 °F 82% SW  at  0.0 mph 0.00 in / hr 856 ft 4:16 AM CDT Rapid Fire
Opelika, Opelika, AL 53.2 °F - 45 °F 73% North  at  0.0 mph 0.00 in / hr 785 ft 4:17 AM CDT Rapid Fire
Plant breeding unit, Tallassee, AL 51.3 °F - 50 °F 97% NNE  at  1.0 mph 0.00 in / hr 230 ft 4:03 AM CDT Normal

Show More Stations Show Fewer Stations

What do you think?

We're not finished. Please let us know what you like, what you don't like, and what you are still missing.